Vancouver, Canada
Current Conditions -  °F | °C
As of 6:00 AM on Friday 24 Oct 2014 (Local Time) from CYVR Reporting Station
Overcast Overcast  
Wind Chill: 46°   Ceiling: 4400
Heat Index: 48°   Visibility: 15mi
Dew Point: 46°   Wind: 6mph
Humidity: 93%   Direction: 70°ENE
Pressure: 30.03"   Gusts: NA
Location:  49.26°N, 123.11°W
Report Text: CYVR 241300Z 07005KT 15SM SCT025 BKN044 OVC082 09/08 A3003 RMK SC3SC4AC1 SLP170
Loading
Personal Weather Stations






























Interactive Weather Map
Tropical Storm Tracking
New forecast layout! Learn more

10-Day Weather Forecast

Advertisements
Track Severe Weather on mobile